Time;durP1;ratioP1;P1;durP2;ratioP2;P2;SDS_P1;SDS_P2;PMS_P1;PMS_P2;Temp;Humidity;BMP_temperature;BMP_pressure;BME280_temperature;BME280_humidity;BME280_pressure;Samples;Min_cycle;Max_cycle;Signal;HPM_P1;HPM_P2
2023/08/19 00:00:08;;;;;;;;;;;;;;;26.11;51.02;99597.19;314979;31;1467;-73
2023/08/19 00:00:19;;;;;;;;;;;;;;;26.11;50.80;99595.34;315511;31;2087;-73
2023/08/19 00:00:29;;;;;;;;;;;;;;;26.10;50.80;99596.34;314349;31;2862;-73
2023/08/19 00:00:39;;;;;;;;;;;;;;;26.10;51.11;99599.03;312847;31;1320;-73
2023/08/19 00:00:49;;;;;;;;;;;;;;;26.10;50.96;99595.50;313164;31;3673;-73
2023/08/19 00:01:00;;;;;;;;;;;;;;;26.12;51.20;99605.09;312540;31;4164;-73
2023/08/19 00:01:10;;;;;;;;;;;;;;;26.13;51.01;99596.03;311730;31;1317;-74
2023/08/19 00:01:20;;;;;;;;;;;;;;;26.13;50.85;99601.41;309802;31;4989;-74
2023/08/19 00:01:30;;;;;;;;;;;;;;;26.13;51.00;99593.34;310434;31;4411;-74
2023/08/19 00:01:41;;;;;;;;;;;;;;;26.14;50.99;99592.34;311927;31;851;-74
2023/08/19 00:01:52;;;;;;;;;;;;;;;26.14;50.73;99597.72;306877;31;5161;-73
2023/08/19 00:02:02;;;;;;;;;;;;;;;26.10;50.92;99601.72;304572;32;4579;-73
2023/08/19 00:02:13;;;;;;;;;;;;;;;26.09;50.75;99600.03;302848;32;3255;-73
2023/08/19 00:02:23;;;;;;;;;;;;;;;26.08;51.24;99593.00;306482;32;791;-73
2023/08/19 00:02:33;;;;;;;;;;;;;;;26.08;51.12;99597.53;300378;32;3033;-73
2023/08/19 00:02:43;;;;;;;;;;;;;;;26.07;51.09;99599.38;300566;32;3835;-73
2023/08/19 00:02:55;;;;;;;;;;;;;;;26.06;50.84;99600.38;304363;32;745;-73
2023/08/19 00:03:05;;;;;;;;;;;;;;;26.05;50.86;99597.84;303301;32;5185;-73
2023/08/19 00:03:16;;;;;;;;;;;;;;;26.05;51.09;99587.13;302274;32;5755;-73
2023/08/19 00:03:26;;;;;;;;;;;;;;;26.03;51.03;99602.53;300693;32;6385;-73
2023/08/19 00:03:37;;;;;;;;;;;;;;;25.97;51.29;99598.69;301158;32;1361;-73
2023/08/19 00:03:48;;;;;;;;;;;;;;;25.94;51.33;99596.31;300418;32;6011;-73
2023/08/19 00:03:59;;;;;;;;;;;;;;;25.94;51.32;99601.69;300565;32;7162;-73
2023/08/19 00:04:09;;;;;;;;;;;;;;;25.95;51.34;99598.00;299973;32;896;-73
2023/08/19 00:04:19;;;;;;;;;;;;;;;25.97;51.43;99596.00;297107;33;6485;-73
2023/08/19 00:04:29;;;;;;;;;;;;;;;26.00;51.29;99598.31;294994;33;4682;-73
2023/08/19 00:04:40;;;;;;;;;;;;;;;26.02;51.44;99593.63;296008;33;1491;-73
2023/08/19 00:04:50;;;;;;;;;;;;;;;26.04;51.38;99597.00;294245;33;4537;-73
2023/08/19 00:05:00;;;;;;;;;;;;;;;26.06;51.22;99599.53;293227;33;6114;-73
2023/08/19 00:05:11;;;;;;;;;;;;;;;26.05;51.38;99598.69;293021;33;4751;-73
2023/08/19 00:05:21;;;;;;;;;;;;;;;26.06;51.32;99599.53;288982;34;4918;-73
2023/08/19 00:05:31;;;;;;;;;;;;;;;26.05;51.48;99604.03;291539;33;7463;-73
2023/08/19 00:05:42;;;;;;;;;;;;;;;26.02;51.44;99593.63;293292;33;8784;-73
2023/08/19 00:05:52;;;;;;;;;;;;;;;26.02;51.27;99596.31;291028;34;1435;-73
2023/08/19 00:06:06;;;;;;;;;;;;;;;26.00;51.33;99594.81;290359;33;9071;-73
2023/08/19 00:06:33;;;;;;;;;;;;;;;26.00;51.34;99594.81;289975;33;9649;-74
2023/08/19 00:06:43;;;;;;;;;;;;;;;26.00;51.41;99595.63;285334;34;6488;-73
2023/08/19 00:06:53;;;;;;;;;;;;;;;26.03;51.13;99594.47;282743;35;794;-73
2023/08/19 00:07:04;;;;;;;;;;;;;;;26.04;51.43;99597.00;281903;34;6251;-73
2023/08/19 00:07:15;;;;;;;;;;;;;;;26.05;51.10;99598.69;282502;34;8157;-73
2023/08/19 00:07:25;;;;;;;;;;;;;;;26.07;51.33;99594.00;281883;35;1294;-73
2023/08/19 00:09:36;;;;;;;;;;;;;;;26.06;51.13;99595.00;2493739;27;20295;-73
2023/08/19 00:09:46;;;;;;;;;;;;;;;26.06;51.03;99594.16;352989;28;1458;-73
2023/08/19 00:09:56;;;;;;;;;;;;;;;26.04;51.26;99597.00;351642;28;1311;-73
2023/08/19 00:10:07;;;;;;;;;;;;;;;26.04;51.55;99591.63;348824;28;1706;-73
2023/08/19 00:10:17;;;;;;;;;;;;;;;26.04;51.37;99591.63;347554;28;922;-73
2023/08/19 00:10:27;;;;;;;;;;;;;;;26.01;51.42;99591.97;348962;28;1415;-73
2023/08/19 00:10:37;;;;;;;;;;;;;;;25.96;51.44;99594.31;348994;28;886;-73
2023/08/19 00:10:48;;;;;;;;;;;;;;;25.94;51.52;99584.75;349054;28;867;-73
2023/08/19 00:10:58;;;;;;;;;;;;;;;25.92;51.42;99592.13;349831;28;863;-73
2023/08/19 00:11:08;;;;;;;;;;;;;;;25.91;51.56;99593.13;350195;28;903;-73
2023/08/19 00:11:18;;;;;;;;;;;;;;;25.90;51.56;99594.13;348874;28;1392;-74
2023/08/19 00:11:29;;;;;;;;;;;;;;;25.89;51.51;99589.75;349936;28;1354;-74
2023/08/19 00:11:39;;;;;;;;;;;;;;;25.89;51.82;99593.28;350579;28;841;-74
2023/08/19 00:11:50;;;;;;;;;;;;;;;25.86;51.84;99593.59;347624;28;1198;-74
2023/08/19 00:12:00;;;;;;;;;;;;;;;25.85;51.71;99591.91;349981;28;1321;-74
2023/08/19 00:12:10;;;;;;;;;;;;;;;25.83;51.96;99594.75;350282;28;1263;-74
2023/08/19 00:12:21;;;;;;;;;;;;;;;25.83;51.86;99593.91;350543;28;780;-74
2023/08/19 00:12:31;;;;;;;;;;;;;;;25.84;52.05;99595.59;350424;28;753;-73
2023/08/19 00:12:41;;;;;;;;;;;;;;;25.84;52.10;99590.22;348927;28;1376;-73
2023/08/19 00:12:52;;;;;;;;;;;;;;;25.84;51.59;99595.59;350262;28;1307;-73
2023/08/19 00:13:02;;;;;;;;;;;;;;;25.85;52.05;99591.91;351676;28;1315;-73
2023/08/19 00:13:13;;;;;;;;;;;;;;;25.86;51.91;99590.91;351515;28;1326;-73
2023/08/19 00:13:23;;;;;;;;;;;;;;;25.86;51.59;99588.22;351323;28;1205;-73
2023/08/19 00:13:34;;;;;;;;;;;;;;;25.86;51.84;99593.59;349102;28;890;-73
2023/08/19 00:13:44;;;;;;;;;;;;;;;25.86;51.93;99596.28;349734;28;1280;-73
2023/08/19 00:13:54;;;;;;;;;;;;;;;25.86;52.07;99593.59;350310;28;1033;-73
2023/08/19 00:14:05;;;;;;;;;;;;;;;25.86;51.79;99593.59;350331;28;859;-73
2023/08/19 00:14:15;;;;;;;;;;;;;;;25.84;52.06;99591.06;349719;28;2732;-73
2023/08/19 00:14:25;;;;;;;;;;;;;;;25.85;51.97;99597.28;345787;28;3136;-73
2023/08/19 00:14:36;;;;;;;;;;;;;;;25.83;51.94;99594.75;348204;28;4889;-73
2023/08/19 00:14:47;;;;;;;;;;;;;;;25.84;52.14;99590.22;347496;28;4561;-73
2023/08/19 00:14:58;;;;;;;;;;;;;;;25.84;52.26;99592.91;347964;28;2819;-73
2023/08/19 00:15:08;;;;;;;;;;;;;;;25.85;52.03;99598.13;347232;28;1163;-74
2023/08/19 00:15:18;;;;;;;;;;;;;;;25.87;51.93;99591.75;346092;28;1441;-73
2023/08/19 00:15:29;;;;;;;;;;;;;;;25.88;51.93;99590.75;346170;28;1206;-73
2023/08/19 00:15:39;;;;;;;;;;;;;;;25.90;51.88;99599.47;346365;28;988;-73
2023/08/19 00:15:49;;;;;;;;;;;;;;;25.91;51.91;99596.63;346226;28;1192;-73
2023/08/19 00:15:59;;;;;;;;;;;;;;;25.93;51.85;99597.31;347108;28;926;-73
2023/08/19 00:16:09;;;;;;;;;;;;;;;25.95;51.63;99592.63;344931;28;1233;-73
2023/08/19 00:16:20;;;;;;;;;;;;;;;25.98;51.79;99597.69;344841;28;1354;-74
2023/08/19 00:16:30;;;;;;;;;;;;;;;26.00;51.69;99590.28;344676;28;1397;-74
2023/08/19 00:16:40;;;;;;;;;;;;;;;26.02;51.54;99595.47;343583;28;1485;-73
2023/08/19 00:16:50;;;;;;;;;;;;;;;26.05;51.82;99592.47;345013;28;818;-73
2023/08/19 00:17:03;;;;;;;;;;;;;;;26.05;51.61;99598.69;346262;28;903;-73
2023/08/19 00:17:13;;;;;;;;;;;;;;;26.06;51.56;99595.00;343843;28;956;-73
2023/08/19 00:17:23;;;;;;;;;;;;;;;26.07;51.54;99596.69;343542;28;1260;-73
2023/08/19 00:17:33;;;;;;;;;;;;;;;26.08;51.33;99598.34;344899;28;796;-73
2023/08/19 00:17:44;;;;;;;;;;;;;;;26.09;51.23;99589.31;348322;28;1272;-73
2023/08/19 00:17:54;;;;;;;;;;;;;;;26.09;51.44;99592.00;344441;28;1203;-75
2023/08/19 00:18:04;;;;;;;;;;;;;;;26.10;51.28;99595.50;342877;28;1423;-74
2023/08/19 00:18:14;;;;;;;;;;;;;;;26.11;51.20;99597.19;340428;28;1584;-74
2023/08/19 00:18:24;;;;;;;;;;;;;;;26.12;51.19;99593.50;342754;28;1289;-74
2023/08/19 00:18:35;;;;;;;;;;;;;;;26.12;51.25;99598.88;342161;28;1373;-74
2023/08/19 00:18:45;;;;;;;;;;;;;;;26.13;51.19;99600.56;340885;29;872;-75
2023/08/19 00:18:55;;;;;;;;;;;;;;;26.13;51.39;99593.34;340379;29;902;-74
2023/08/19 00:19:06;;;;;;;;;;;;;;;26.12;51.41;99594.34;338017;29;1427;-74
2023/08/19 00:19:16;;;;;;;;;;;;;;;26.12;51.30;99597.03;339314;29;1185;-73
2023/08/19 00:19:26;;;;;;;;;;;;;;;26.12;51.23;99597.03;339921;29;1985;-73
2023/08/19 00:19:36;;;;;;;;;;;;;;;26.12;51.37;99590.81;338151;29;2014;-73
2023/08/19 00:19:46;;;;;;;;;;;;;;;26.10;51.30;99596.34;336601;29;1856;-73
2023/08/19 00:19:57;;;;;;;;;;;;;;;26.09;51.48;99597.34;332977;29;1914;-73
2023/08/19 00:20:07;;;;;;;;;;;;;;;26.08;51.46;99598.34;330545;29;965;-73
2023/08/19 00:20:17;;;;;;;;;;;;;;;26.04;51.42;99593.47;330666;29;1178;-73
2023/08/19 00:20:28;;;;;;;;;;;;;;;26.02;51.53;99593.63;332191;29;2091;-73
2023/08/19 00:20:39;;;;;;;;;;;;;;;26.02;51.39;99592.81;333215;29;1479;-73
2023/08/19 00:20:51;;;;;;;;;;;;;;;26.01;51.44;99596.47;334286;29;1199;-73
2023/08/19 00:21:03;;;;;;;;;;;;;;;26.02;51.47;99587.44;335518;29;1161;-73
2023/08/19 00:21:13;;;;;;;;;;;;;;;26.02;51.39;99593.63;334905;29;1957;-73
2023/08/19 00:21:23;;;;;;;;;;;;;;;26.02;51.61;99593.63;334795;29;1849;-73
2023/08/19 00:21:34;;;;;;;;;;;;;;;26.03;51.47;99598.00;329374;29;1322;-73
2023/08/19 00:21:44;;;;;;;;;;;;;;;26.04;51.40;99605.06;329718;29;2097;-73
2023/08/19 00:21:54;;;;;;;;;;;;;;;26.05;51.58;99592.47;327365;30;2462;-73
2023/08/19 00:22:04;;;;;;;;;;;;;;;26.05;51.32;99598.69;325722;30;838;-73
2023/08/19 00:22:15;;;;;;;;;;;;;;;26.05;51.79;99598.69;325539;30;3219;-73
2023/08/19 00:22:25;;;;;;;;;;;;;;;26.06;51.58;99600.38;323651;30;2493;-73
2023/08/19 00:22:36;;;;;;;;;;;;;;;26.07;51.41;99596.69;322174;30;860;-73
2023/08/19 00:22:46;;;;;;;;;;;;;;;26.08;51.36;99603.72;319528;30;2689;-73
2023/08/19 00:22:56;;;;;;;;;;;;;;;26.08;51.51;99598.34;320023;30;1626;-73
2023/08/19 00:23:06;;;;;;;;;;;;;;;26.09;51.28;99599.19;319674;30;1277;-73
2023/08/19 00:23:17;;;;;;;;;;;;;;;26.07;51.40;99599.38;317216;31;1728;-73
2023/08/19 00:23:27;;;;;;;;;;;;;;;26.06;51.40;99605.72;318800;30;2002;-73
2023/08/19 00:23:37;;;;;;;;;;;;;;;26.06;51.59;99600.38;318435;30;2838;-73
2023/08/19 00:23:47;;;;;;;;;;;;;;;26.07;51.55;99602.03;317883;30;4586;-73
2023/08/19 00:23:58;;;;;;;;;;;;;;;26.07;51.60;99595.84;317702;31;5018;-73
2023/08/19 00:24:09;;;;;;;;;;;;;;;26.08;51.62;99597.53;315012;31;3364;-73
2023/08/19 00:24:19;;;;;;;;;;;;;;;26.09;51.30;99599.19;311922;31;882;-73
2023/08/19 00:24:29;;;;;;;;;;;;;;;26.09;51.33;99605.41;314675;31;3347;-73
2023/08/19 00:24:39;;;;;;;;;;;;;;;26.10;51.58;99596.34;315830;31;3299;-73
2023/08/19 00:24:50;;;;;;;;;;;;;;;26.10;51.50;99601.72;315141;31;1457;-73
2023/08/19 00:25:00;;;;;;;;;;;;;;;26.11;51.39;99600.72;314353;31;3190;-73
2023/08/19 00:25:10;;;;;;;;;;;;;;;26.14;51.49;99607.59;309901;31;2281;-73
2023/08/19 00:25:20;;;;;;;;;;;;;;;26.13;51.53;99601.41;310662;31;1226;-73
2023/08/19 00:25:33;;;;;;;;;;;;;;;26.15;51.26;99599.41;310597;31;2453;-73
2023/08/19 00:25:43;;;;;;;;;;;;;;;26.17;51.64;99599.22;308312;31;3260;-73
2023/08/19 00:25:53;;;;;;;;;;;;;;;26.17;51.35;99602.75;306640;32;3910;-73
2023/08/19 00:26:04;;;;;;;;;;;;;;;26.18;51.73;99599.06;307587;32;1161;-73
2023/08/19 00:26:14;;;;;;;;;;;;;;;26.19;51.98;99600.75;308131;31;4092;-74
2023/08/19 00:26:27;;;;;;;;;;;;;;;26.21;51.46;99607.81;305742;32;4139;-74
2023/08/19 00:26:37;;;;;;;;;;;;;;;26.21;51.57;99602.44;302312;32;4882;-74
2023/08/19 00:26:47;;;;;;;;;;;;;;;26.21;51.65;99599.75;301061;32;2038;-74
2023/08/19 00:26:59;;;;;;;;;;;;;;;26.21;51.62;99608.63;301552;32;4604;-74
2023/08/19 00:27:10;;;;;;;;;;;;;;;26.22;51.55;99604.94;301632;32;4553;-74
2023/08/19 00:27:20;;;;;;;;;;;;;;;26.23;51.77;99597.75;301210;32;867;-74
2023/08/19 00:27:30;;;;;;;;;;;;;;;26.24;51.51;99602.09;298722;32;3252;-73
2023/08/19 00:27:40;;;;;;;;;;;;;;;26.24;51.59;99602.09;298634;32;3694;-73
2023/08/19 00:27:51;;;;;;;;;;;;;;;26.25;51.74;99603.78;299032;33;1327;-73
2023/08/19 00:28:03;;;;;;;;;;;;;;;26.23;51.76;99601.28;296507;33;4491;-73
2023/08/19 00:28:14;;;;;;;;;;;;;;;26.25;51.65;99598.44;295321;33;5393;-73
2023/08/19 00:28:25;;;;;;;;;;;;;;;26.25;51.53;99603.78;295261;33;5785;-73
2023/08/19 00:28:35;;;;;;;;;;;;;;;26.24;51.29;99608.31;295142;33;1000;-73
2023/08/19 00:28:45;;;;;;;;;;;;;;;26.25;51.52;99598.44;294623;33;5834;-73
2023/08/19 00:28:56;;;;;;;;;;;;;;;26.25;52.19;99604.63;293119;33;6100;-73
2023/08/19 00:29:06;;;;;;;;;;;;;;;26.24;51.83;99602.94;293112;33;929;-73
2023/08/19 00:29:16;;;;;;;;;;;;;;;26.22;51.80;99601.44;292042;33;6633;-73
2023/08/19 00:29:26;;;;;;;;;;;;;;;26.22;51.97;99601.44;291628;33;6249;-73
2023/08/19 00:29:37;;;;;;;;;;;;;;;26.21;51.75;99597.91;293238;33;867;-73
2023/08/19 00:29:47;;;;;;;;;;;;;;;26.22;52.03;99604.13;288618;34;4263;-73
2023/08/19 00:29:57;;;;;;;;;;;;;;;26.22;51.59;99598.75;286999;34;4901;-73
2023/08/19 00:30:07;;;;;;;;;;;;;;;26.22;51.65;99606.78;285399;34;6038;-73
2023/08/19 00:30:18;;;;;;;;;;;;;;;26.22;51.82;99601.44;287393;34;789;-73
2023/08/19 00:30:28;;;;;;;;;;;;;;;26.21;51.74;99603.28;287011;33;7655;-73
2023/08/19 00:30:38;;;;;;;;;;;;;;;26.21;51.80;99602.44;287063;34;7424;-73
2023/08/19 00:30:48;;;;;;;;;;;;;;;26.19;51.98;99600.75;285513;34;1255;-73
2023/08/19 00:30:58;;;;;;;;;;;;;;;26.21;51.99;99599.75;284228;34;8107;-73
2023/08/19 00:31:09;;;;;;;;;;;;;;;26.21;52.05;99597.91;282994;34;8527;-73
2023/08/19 00:31:19;;;;;;;;;;;;;;;26.21;51.95;99597.06;283632;34;1251;-73
2023/08/19 00:31:29;;;;;;;;;;;;;;;26.21;51.78;99595.22;282992;34;8505;-73
2023/08/19 00:31:40;;;;;;;;;;;;;;;26.21;51.83;99600.59;284080;34;8265;-73
2023/08/19 00:31:50;;;;;;;;;;;;;;;26.22;51.64;99598.75;288193;34;1146;-73
2023/08/19 00:32:00;;;;;;;;;;;;;;;26.23;51.48;99605.78;284705;34;5655;-73
2023/08/19 00:32:10;;;;;;;;;;;;;;;26.22;51.53;99593.38;284276;34;7256;-73
2023/08/19 00:32:21;;;;;;;;;;;;;;;26.23;51.64;99603.13;285537;34;868;-73
2023/08/19 00:33:59;;;;;;;;;;;;;;;26.08;51.72;99600.19;2489866;27;19932;-74
2023/08/19 00:34:10;;;;;;;;;;;;;;;26.06;51.53;99599.53;352885;28;1207;-73
2023/08/19 00:34:20;;;;;;;;;;;;;;;26.02;51.55;99595.47;351913;28;1108;-73
2023/08/19 00:34:30;;;;;;;;;;;;;;;25.98;51.89;99597.69;350387;28;1302;-73
2023/08/19 00:34:40;;;;;;;;;;;;;;;25.99;51.79;99593.16;349131;28;1370;-73
2023/08/19 00:34:51;;;;;;;;;;;;;;;26.00;51.86;99602.84;350234;28;1837;-73
2023/08/19 00:35:01;;;;;;;;;;;;;;;26.00;51.89;99598.31;349505;28;2858;-73
2023/08/19 00:35:12;;;;;;;;;;;;;;;26.01;51.83;99602.69;348763;28;848;-74
2023/08/19 00:35:22;;;;;;;;;;;;;;;26.01;51.80;99594.63;348955;28;1124;-74
2023/08/19 00:35:33;;;;;;;;;;;;;;;26.03;51.62;99599.84;347705;28;923;-74
2023/08/19 00:35:43;;;;;;;;;;;;;;;26.05;51.53;99596.00;347545;28;1267;-74
2023/08/19 00:35:54;;;;;;;;;;;;;;;26.07;51.71;99598.53;349733;28;800;-74
2023/08/19 00:36:04;;;;;;;;;;;;;;;26.07;51.74;99596.69;350416;28;1061;-74
2023/08/19 00:36:14;;;;;;;;;;;;;;;26.10;51.69;99595.50;351791;28;1302;-74
2023/08/19 00:36:25;;;;;;;;;;;;;;;26.11;51.61;99599.88;351755;28;1016;-73
2023/08/19 00:36:35;;;;;;;;;;;;;;;26.12;51.58;99594.34;350555;28;1233;-73
2023/08/19 00:36:45;;;;;;;;;;;;;;;26.12;51.73;99597.03;348909;28;1324;-73
2023/08/19 00:36:56;;;;;;;;;;;;;;;26.13;51.68;99595.19;350203;28;1505;-73
2023/08/19 00:37:07;;;;;;;;;;;;;;;26.14;51.61;99597.72;347613;28;951;-73
2023/08/19 00:37:17;;;;;;;;;;;;;;;26.14;51.59;99592.34;347493;28;1338;-73
2023/08/19 00:37:28;;;;;;;;;;;;;;;26.16;52.01;99595.72;347615;28;796;-73
2023/08/19 00:37:38;;;;;;;;;;;;;;;26.17;52.02;99596.56;347654;28;827;-73
2023/08/19 00:37:48;;;;;;;;;;;;;;;26.17;51.83;99594.72;349636;28;1298;-73
2023/08/19 00:37:58;;;;;;;;;;;;;;;26.17;51.82;99597.38;350457;28;841;-73
2023/08/19 00:38:09;;;;;;;;;;;;;;;26.19;51.99;99597.22;348747;28;1346;-73
2023/08/19 00:38:19;;;;;;;;;;;;;;;26.19;51.97;99595.38;347766;28;1110;-73
2023/08/19 00:38:29;;;;;;;;;;;;;;;26.19;51.99;99606.13;348952;28;1400;-73
2023/08/19 00:38:40;;;;;;;;;;;;;;;26.21;52.09;99591.69;344800;28;1254;-73
2023/08/19 00:38:51;;;;;;;;;;;;;;;26.19;51.91;99595.38;344936;28;1193;-73
2023/08/19 00:39:03;;;;;;;;;;;;;;;26.19;52.11;99595.38;344877;28;858;-73
2023/08/19 00:39:13;;;;;;;;;;;;;;;26.19;51.88;99595.38;344797;28;860;-73
2023/08/19 00:39:23;;;;;;;;;;;;;;;26.20;51.78;99601.59;347554;28;777;-73
2023/08/19 00:39:34;;;;;;;;;;;;;;;26.19;52.11;99600.75;350282;28;887;-73
2023/08/19 00:39:44;;;;;;;;;;;;;;;26.20;51.88;99601.59;347517;28;1215;-73
2023/08/19 00:39:54;;;;;;;;;;;;;;;26.19;52.32;99600.75;347489;28;1065;-73
2023/08/19 00:40:04;;;;;;;;;;;;;;;26.19;52.07;99603.44;347159;28;1297;-73
2023/08/19 00:40:15;;;;;;;;;;;;;;;26.19;51.90;99602.59;343719;28;1376;-74
2023/08/19 00:40:25;;;;;;;;;;;;;;;26.18;51.88;99604.44;342922;28;1319;-74
2023/08/19 00:40:35;;;;;;;;;;;;;;;26.15;52.04;99604.75;341748;28;1261;-74
2023/08/19 00:40:46;;;;;;;;;;;;;;;26.14;52.00;99596.88;340948;29;883;-74
2023/08/19 00:40:56;;;;;;;;;;;;;;;26.14;52.23;99607.59;342928;28;897;-74
2023/08/19 00:41:06;;;;;;;;;;;;;;;26.14;52.04;99602.25;343507;28;801;-74
2023/08/19 00:41:16;;;;;;;;;;;;;;;26.14;51.94;99603.09;340799;28;1226;-74
2023/08/19 00:41:27;;;;;;;;;;;;;;;26.14;52.10;99603.09;340513;29;1210;-74
2023/08/19 00:41:37;;;;;;;;;;;;;;;26.14;51.96;99603.09;340983;28;1241;-74
2023/08/19 00:41:48;;;;;;;;;;;;;;;26.15;52.41;99602.06;339393;29;1304;-74
2023/08/19 00:41:58;;;;;;;;;;;;;;;26.16;52.08;99609.13;341781;28;1321;-74
2023/08/19 00:42:08;;;;;;;;;;;;;;;26.17;52.05;99608.13;341932;28;1408;-74
2023/08/19 00:42:19;;;;;;;;;;;;;;;26.18;52.14;99609.81;340605;28;1346;-74
2023/08/19 00:42:29;;;;;;;;;;;;;;;26.18;51.93;99604.44;340808;29;903;-74
2023/08/19 00:42:39;;;;;;;;;;;;;;;26.18;52.17;99607.13;337802;29;2768;-74
2023/08/19 00:42:49;;;;;;;;;;;;;;;26.19;52.23;99605.28;333851;29;4772;-74
2023/08/19 00:42:59;;;;;;;;;;;;;;;26.19;52.18;99598.06;337963;29;4689;-74
2023/08/19 00:43:10;;;;;;;;;;;;;;;26.19;52.28;99606.13;338159;29;896;-74
2023/08/19 00:43:20;;;;;;;;;;;;;;;26.20;52.08;99609.66;337951;29;5270;-74
2023/08/19 00:43:33;;;;;;;;;;;;;;;26.21;51.98;99597.06;339597;29;1198;-74
2023/08/19 00:43:43;;;;;;;;;;;;;;;26.21;52.04;99607.81;338265;29;849;-74
2023/08/19 00:43:54;;;;;;;;;;;;;;;26.22;51.89;99609.47;338834;29;1350;-74
2023/08/19 00:44:04;;;;;;;;;;;;;;;26.22;52.06;99604.94;340477;28;1834;-74
2023/08/19 00:44:14;;;;;;;;;;;;;;;26.22;51.89;99609.47;342113;28;908;-74
2023/08/19 00:44:25;;;;;;;;;;;;;;;26.20;52.13;99601.59;341730;28;2173;-74
2023/08/19 00:44:35;;;;;;;;;;;;;;;26.22;52.25;99604.13;339286;28;4382;-74
2023/08/19 00:44:45;;;;;;;;;;;;;;;26.20;51.94;99606.97;340817;29;1113;-74
2023/08/19 00:44:56;;;;;;;;;;;;;;;26.20;52.04;99606.97;340577;29;1410;-74
2023/08/19 00:45:06;;;;;;;;;;;;;;;26.19;52.25;99606.13;339351;29;2218;-74
2023/08/19 00:45:16;;;;;;;;;;;;;;;26.18;52.22;99601.75;338356;29;843;-74
2023/08/19 00:45:27;;;;;;;;;;;;;;;26.18;52.06;99609.81;335700;29;1561;-74
2023/08/19 00:45:40;;;;;;;;;;;;;;;26.17;52.18;99605.44;334557;29;1095;-74
2023/08/19 00:45:51;;;;;;;;;;;;;;;26.16;52.21;99606.44;330011;29;1759;-74
2023/08/19 00:46:01;;;;;;;;;;;;;;;26.16;52.03;99605.59;326907;30;1334;-74
2023/08/19 00:46:11;;;;;;;;;;;;;;;26.14;52.14;99608.44;330419;29;2052;-74
2023/08/19 00:46:22;;;;;;;;;;;;;;;26.14;52.10;99611.13;331405;29;2253;-74
2023/08/19 00:46:32;;;;;;;;;;;;;;;26.13;52.01;99601.41;333102;29;1233;-74
2023/08/19 00:46:43;;;;;;;;;;;;;;;26.14;51.91;99605.75;330187;29;2434;-74
2023/08/19 00:46:53;;;;;;;;;;;;;;;26.13;51.97;99606.75;326404;30;2864;-74
2023/08/19 00:47:03;;;;;;;;;;;;;;;26.13;51.78;99604.09;323352;30;2145;-74
2023/08/19 00:47:13;;;;;;;;;;;;;;;26.12;52.19;99607.78;326889;30;914;-74
2023/08/19 00:47:24;;;;;;;;;;;;;;;26.12;52.44;99605.09;325759;30;1589;-74
2023/08/19 00:47:34;;;;;;;;;;;;;;;26.12;52.22;99613.13;325655;30;1253;-74
2023/08/19 00:47:45;;;;;;;;;;;;;;;26.10;52.29;99607.09;325208;30;1413;-74
2023/08/19 00:47:55;;;;;;;;;;;;;;;26.09;52.50;99604.56;325724;30;2128;-74
2023/08/19 00:48:06;;;;;;;;;;;;;;;26.08;52.75;99608.25;322952;30;2631;-74
2023/08/19 00:48:17;;;;;;;;;;;;;;;26.06;52.41;99608.41;324620;30;883;-74
2023/08/19 00:48:28;;;;;;;;;;;;;;;26.05;52.71;99601.38;322626;30;2891;-75
2023/08/19 00:48:38;;;;;;;;;;;;;;;26.04;52.79;99602.38;321398;30;3046;-74
2023/08/19 00:48:48;;;;;;;;;;;;;;;26.05;52.54;99609.41;320226;30;3460;-74
2023/08/19 00:48:59;;;;;;;;;;;;;;;26.06;52.52;99605.72;316361;31;1349;-75
2023/08/19 00:49:10;;;;;;;;;;;;;;;26.04;52.34;99605.06;316675;30;3231;-75
2023/08/19 00:49:20;;;;;;;;;;;;;;;26.02;52.11;99614.25;314087;30;2845;-75
2023/08/19 00:49:30;;;;;;;;;;;;;;;25.95;51.92;99608.72;315124;31;1667;-75
2023/08/19 00:49:40;;;;;;;;;;;;;;;25.90;52.24;99604.84;317855;30;2243;-75
2023/08/19 00:49:51;;;;;;;;;;;;;;;25.85;52.29;99603.47;318882;30;2500;-75
2023/08/19 00:50:03;;;;;;;;;;;;;;;25.86;52.49;99607.00;318617;31;920;-76
2023/08/19 00:50:15;;;;;;;;;;;;;;;25.86;52.53;99601.63;315090;31;1576;-75
2023/08/19 00:50:25;;;;;;;;;;;;;;;25.87;52.77;99606.00;315120;31;3750;-75
2023/08/19 00:50:35;;;;;;;;;;;;;;;25.88;52.56;99606.84;313662;31;3950;-75
2023/08/19 00:50:46;;;;;;;;;;;;;;;25.87;52.75;99606.00;316315;31;830;-75
2023/08/19 00:50:57;;;;;;;;;;;;;;;25.88;52.57;99614.91;316984;31;4853;-74
2023/08/19 00:51:07;;;;;;;;;;;;;;;25.89;52.60;99604.00;313028;31;4551;-75
2023/08/19 00:51:17;;;;;;;;;;;;;;;25.89;52.52;99604.00;311844;31;850;-73
2023/08/19 00:51:27;;;;;;;;;;;;;;;25.91;52.72;99607.38;310848;31;3995;-73
2023/08/19 00:51:38;;;;;;;;;;;;;;;25.93;52.46;99608.03;309221;31;3889;-73
2023/08/19 00:51:48;;;;;;;;;;;;;;;25.94;52.27;99604.38;308531;32;1214;-73
2023/08/19 00:51:58;;;;;;;;;;;;;;;25.95;52.31;99603.38;308900;31;3032;-73
2023/08/19 00:52:08;;;;;;;;;;;;;;;25.96;52.59;99605.03;308909;31;3682;-73
2023/08/19 00:52:18;;;;;;;;;;;;;;;25.98;53.04;99603.03;302554;32;4693;-73
2023/08/19 00:52:29;;;;;;;;;;;;;;;25.99;52.79;99604.72;298552;32;4514;-73
2023/08/19 00:52:39;;;;;;;;;;;;;;;25.98;52.50;99599.53;297729;32;5281;-73
2023/08/19 00:52:50;;;;;;;;;;;;;;;25.96;52.34;99604.22;297144;32;6148;-73
2023/08/19 00:53:01;;;;;;;;;;;;;;;25.95;52.46;99600.69;298997;32;2982;-73
2023/08/19 00:53:12;;;;;;;;;;;;;;;25.95;52.33;99605.19;292476;33;6960;-73
2023/08/19 00:53:22;;;;;;;;;;;;;;;25.94;52.30;99607.03;291324;33;6370;-73
2023/08/19 00:53:33;;;;;;;;;;;;;;;25.95;52.44;99614.09;293106;33;858;-73
2023/08/19 00:53:43;;;;;;;;;;;;;;;25.94;52.78;99604.38;291894;33;5873;-73
2023/08/19 00:53:53;;;;;;;;;;;;;;;25.94;52.68;99607.03;291425;33;5807;-73
2023/08/19 00:54:04;;;;;;;;;;;;;;;25.93;52.33;99610.72;291129;33;4340;-72
2023/08/19 00:54:14;;;;;;;;;;;;;;;25.91;51.98;99607.38;288253;34;1176;-72
2023/08/19 00:54:24;;;;;;;;;;;;;;;25.89;52.27;99608.53;289964;33;6007;-72
2023/08/19 00:54:34;;;;;;;;;;;;;;;25.87;52.26;99605.16;289463;33;7109;-72
2023/08/19 00:54:45;;;;;;;;;;;;;;;25.85;52.22;99614.22;288201;34;1241;-72
2023/08/19 00:54:55;;;;;;;;;;;;;;;25.85;52.51;99602.63;284112;34;8627;-72
2023/08/19 00:55:06;;;;;;;;;;;;;;;25.85;52.19;99613.38;284962;34;8512;-72
2023/08/19 00:55:16;;;;;;;;;;;;;;;25.82;52.28;99605.66;288210;34;1256;-72
2023/08/19 00:55:26;;;;;;;;;;;;;;;25.81;52.43;99609.31;282286;34;9572;-72
2023/08/19 00:55:36;;;;;;;;;;;;;;;25.79;52.43;99609.47;280963;34;9264;-72
2023/08/19 00:55:46;;;;;;;;;;;;;;;25.78;52.22;99607.81;283951;34;1298;-72
2023/08/19 00:55:57;;;;;;;;;;;;;;;25.77;52.35;99605.28;280731;35;8144;-72
2023/08/19 00:57:55;;;;;;;;;;;;;;;25.74;52.34;99606.44;2501775;27;19936;-73
2023/08/19 00:58:07;;;;;;;;;;;;;;;25.74;52.48;99605.59;354372;27;930;-73
2023/08/19 00:58:18;;;;;;;;;;;;;;;25.72;52.47;99605.75;353166;28;911;-73
2023/08/19 00:58:28;;;;;;;;;;;;;;;25.73;52.27;99606.59;351782;28;949;-73
2023/08/19 00:58:38;;;;;;;;;;;;;;;25.72;52.20;99612.97;350357;28;820;-73
2023/08/19 00:58:49;;;;;;;;;;;;;;;25.71;52.63;99604.06;348877;28;749;-73
2023/08/19 00:58:59;;;;;;;;;;;;;;;25.69;52.62;99607.91;347661;28;836;-73
2023/08/19 00:59:09;;;;;;;;;;;;;;;25.63;52.37;99609.34;348752;28;1384;-73
2023/08/19 00:59:19;;;;;;;;;;;;;;;25.58;52.60;99609.00;348775;28;1299;-73
2023/08/19 00:59:29;;;;;;;;;;;;;;;25.56;52.66;99597.59;348799;28;828;-73
2023/08/19 00:59:40;;;;;;;;;;;;;;;25.55;52.62;99611.19;348145;28;1253;-73
2023/08/19 00:59:50;;;;;;;;;;;;;;;25.53;52.69;99604.13;348862;28;867;-74
2023/08/19 01:00:00;;;;;;;;;;;;;;;25.52;52.83;99599.78;350261;28;1313;-74
2023/08/19 01:00:11;;;;;;;;;;;;;;;25.52;52.97;99609.66;350184;28;1128;-73
2023/08/19 01:00:21;;;;;;;;;;;;;;;25.51;52.82;99605.28;348825;28;1075;-74
2023/08/19 01:00:31;;;;;;;;;;;;;;;25.51;52.79;99606.13;348832;28;1434;-73
2023/08/19 01:00:42;;;;;;;;;;;;;;;25.53;52.65;99603.28;347957;28;828;-73
2023/08/19 01:00:53;;;;;;;;;;;;;;;25.55;53.03;99603.13;347516;28;844;-73
2023/08/19 01:01:03;;;;;;;;;;;;;;;25.56;52.80;99602.13;347524;28;1079;-73
2023/08/19 01:01:13;;;;;;;;;;;;;;;25.57;52.62;99606.47;347487;28;994;-73
2023/08/19 01:01:24;;;;;;;;;;;;;;;25.56;52.70;99612.84;346638;28;1293;-73
2023/08/19 01:01:34;;;;;;;;;;;;;;;25.55;52.79;99603.97;344057;28;2617;-73